createdAt,value
2019-01-23T00:01:59.044Z,-8.90
2019-01-23T00:07:05.325Z,-8.80
2019-01-23T00:12:11.565Z,-8.70
2019-01-23T00:17:18.751Z,-8.80
2019-01-23T00:22:24.835Z,-8.90
2019-01-23T00:27:30.921Z,-9.00
2019-01-23T00:32:36.992Z,-8.80
2019-01-23T00:37:43.265Z,-8.80
2019-01-23T00:42:49.353Z,-8.90
2019-01-23T00:47:55.450Z,-8.90
2019-01-23T00:53:01.617Z,-9.00
2019-01-23T00:58:07.768Z,-9.10
2019-01-23T01:03:14.068Z,-9.00
2019-01-23T01:08:20.145Z,-9.20
2019-01-23T01:13:26.238Z,-9.00
2019-01-23T01:18:32.378Z,-9.00
2019-01-23T01:23:38.572Z,-9.10
2019-01-23T01:28:44.729Z,-9.30
2019-01-23T01:33:50.961Z,-9.30
2019-01-23T01:38:57.503Z,-9.40
2019-01-23T01:44:03.696Z,-9.30
2019-01-23T01:49:09.721Z,-9.20
2019-01-23T01:54:15.733Z,-9.20
2019-01-23T01:59:21.904Z,-9.30
2019-01-23T04:08:02.665Z,-10.00
2019-01-23T04:13:08.602Z,-10.10
2019-01-23T04:18:14.601Z,-9.90
2019-01-23T04:23:20.634Z,-9.70
2019-01-23T04:28:26.637Z,-9.90
2019-01-23T04:33:32.788Z,-10.00
2019-01-23T04:38:38.859Z,-10.00
2019-01-23T04:43:46.049Z,-9.90
2019-01-23T04:48:52.143Z,-9.90
2019-01-23T04:53:58.296Z,-9.90
2019-01-23T04:59:04.416Z,-9.80
2019-01-23T05:04:10.466Z,-10.00
2019-01-23T05:09:16.651Z,-10.00
2019-01-23T05:14:22.765Z,-10.00
2019-01-23T05:19:28.894Z,-10.00
2019-01-23T05:24:35.081Z,-10.00
2019-01-23T05:29:42.787Z,-10.00
2019-01-23T05:34:48.835Z,-10.20
2019-01-23T05:39:55.857Z,-10.00
2019-01-23T05:45:01.980Z,-10.10
2019-01-23T05:50:10.287Z,-10.00
2019-01-23T05:55:16.439Z,-10.10
2019-01-23T06:00:23.398Z,-10.20
2019-01-23T06:05:29.611Z,-10.10
2019-01-23T06:10:35.587Z,-10.20
2019-01-23T06:15:41.771Z,-10.20
2019-01-23T06:20:47.836Z,-10.10
2019-01-23T06:25:53.926Z,-10.20
2019-01-23T06:30:59.989Z,-10.10
2019-01-23T06:36:06.067Z,-10.00
2019-01-23T06:41:12.131Z,-10.00
2019-01-23T06:46:18.318Z,-10.20
2019-01-23T06:51:24.378Z,-10.10
2019-01-23T06:56:30.457Z,-10.00
2019-01-23T07:01:36.474Z,-10.20
2019-01-23T07:06:42.400Z,-10.30
2019-01-23T07:11:48.392Z,-10.30
2019-01-23T07:16:54.593Z,-10.30
2019-01-23T07:22:00.544Z,-10.20
2019-01-23T07:27:06.868Z,-10.20
2019-01-23T07:32:13.119Z,-10.10
2019-01-23T07:37:19.041Z,-9.90
2019-01-23T07:42:25.031Z,-9.70
2019-01-23T07:47:30.995Z,-9.70
2019-01-23T07:52:37.072Z,-9.70
2019-01-23T07:57:43.133Z,-9.60
2019-01-23T08:02:49.566Z,-9.50
2019-01-23T08:07:55.714Z,-9.40
2019-01-23T08:13:01.798Z,-9.10
2019-01-23T08:18:08.358Z,-8.50
2019-01-23T08:23:14.617Z,-8.00
2019-01-23T08:28:20.458Z,-7.40
2019-01-23T08:33:26.492Z,-7.00
2019-01-23T08:38:32.864Z,-6.70
2019-01-23T08:43:38.917Z,-6.40
2019-01-23T08:48:45.039Z,-6.10
2019-01-23T08:53:51.017Z,-6.00
2019-01-23T08:58:57.084Z,-5.70
2019-01-23T09:04:03.052Z,-5.50
2019-01-23T09:09:09.605Z,-5.30
2019-01-23T09:14:15.569Z,-5.10
2019-01-23T09:19:21.675Z,-5.00
2019-01-23T09:24:27.564Z,-4.70
2019-01-23T09:29:33.613Z,-4.60
2019-01-23T09:35:04.973Z,-4.40
2019-01-23T09:40:19.267Z,-4.30
2019-01-23T09:46:10.638Z,-4.20
2019-01-23T09:52:21.109Z,-4.00
2019-01-23T09:57:27.167Z,-3.90
2019-01-23T10:02:33.302Z,-3.80
2019-01-23T10:07:39.499Z,-3.70
2019-01-23T10:12:45.437Z,-3.50
2019-01-23T10:17:51.621Z,-3.40
2019-01-23T10:22:57.640Z,-3.30
2019-01-23T10:28:03.683Z,-3.20
2019-01-23T10:33:09.863Z,-3.20
2019-01-23T10:38:16.051Z,-3.00
2019-01-23T10:43:22.018Z,-2.90
2019-01-23T10:48:27.975Z,-2.80
2019-01-23T10:53:34.010Z,-2.60
2019-01-23T10:58:40.133Z,-2.50
2019-01-23T11:03:46.205Z,-2.40
2019-01-23T11:08:52.276Z,-2.40
2019-01-23T11:13:58.299Z,-2.30
2019-01-23T11:19:04.455Z,-2.30
2019-01-23T11:24:10.615Z,-2.40
2019-01-23T11:29:17.217Z,-2.30
2019-01-23T11:34:23.265Z,-2.30
2019-01-23T11:39:29.392Z,-2.30
2019-01-23T11:44:35.515Z,-2.30
2019-01-23T11:49:41.572Z,-2.30
2019-01-23T11:54:47.651Z,-2.30
2019-01-23T11:59:53.687Z,-2.20
2019-01-23T12:04:59.913Z,-2.20
2019-01-23T12:10:07.059Z,-2.20
2019-01-23T12:15:14.634Z,-2.20
2019-01-23T12:20:21.643Z,-2.10
2019-01-23T12:25:27.615Z,-2.10
2019-01-23T12:30:34.827Z,-2.00
2019-01-23T12:35:40.969Z,-1.90
2019-01-23T12:40:47.061Z,-2.00
2019-01-23T12:45:53.043Z,-1.90
2019-01-23T12:50:59.301Z,-1.90
2019-01-23T12:56:05.572Z,-1.90
2019-01-23T13:01:11.571Z,-1.80
2019-01-23T13:06:17.720Z,-1.80
2019-01-23T13:11:23.900Z,-1.90
2019-01-23T13:16:29.974Z,-1.90
2019-01-23T13:21:36.072Z,-1.90
2019-01-23T13:26:42.109Z,-2.00
2019-01-23T13:31:49.274Z,-2.00
2019-01-23T13:36:55.567Z,-1.90
2019-01-23T13:42:01.790Z,-1.90
2019-01-23T13:47:07.944Z,-1.90
2019-01-23T13:52:14.022Z,-2.00
2019-01-23T13:57:20.019Z,-2.10
2019-01-23T14:02:26.011Z,-2.10
2019-01-23T14:07:32.274Z,-2.10
2019-01-23T14:12:38.327Z,-2.10
2019-01-23T14:17:44.419Z,-2.30
2019-01-23T14:22:50.380Z,-2.30
2019-01-23T14:27:56.408Z,-2.40
2019-01-23T14:33:02.514Z,-2.50
2019-01-23T14:38:27.272Z,-2.60
2019-01-23T14:43:33.202Z,-2.60
2019-01-23T14:48:39.190Z,-2.70
2019-01-23T14:53:45.261Z,-2.70
2019-01-23T14:58:51.243Z,-2.90
2019-01-23T15:03:57.307Z,-2.90
2019-01-23T15:09:04.971Z,-3.10
2019-01-23T15:14:12.432Z,-3.20
2019-01-23T15:19:18.516Z,-3.40
2019-01-23T15:24:24.671Z,-3.60
2019-01-23T15:29:31.692Z,-3.80
2019-01-23T15:34:38.723Z,-4.00
2019-01-23T15:39:44.871Z,-4.10
2019-01-23T15:44:50.821Z,-4.30
2019-01-23T15:49:56.886Z,-4.40
2019-01-23T15:55:03.073Z,-4.50
2019-01-23T16:00:15.788Z,-4.60
2019-01-23T16:05:21.861Z,-4.70
2019-01-23T16:10:29.282Z,-4.90
2019-01-23T16:15:35.575Z,-5.00
2019-01-23T16:20:41.723Z,-5.00
2019-01-23T16:25:47.807Z,-5.20
2019-01-23T16:30:53.794Z,-5.30
2019-01-23T16:36:00.005Z,-5.50
2019-01-23T16:41:06.023Z,-5.70
2019-01-23T16:46:12.151Z,-5.80
2019-01-23T16:51:18.341Z,-5.80
2019-01-23T16:56:24.483Z,-5.70
2019-01-23T17:01:30.429Z,-5.50
2019-01-23T17:06:36.633Z,-5.60
2019-01-23T17:11:42.773Z,-5.50
2019-01-23T17:16:48.972Z,-5.40
2019-01-23T17:21:55.070Z,-5.30
2019-01-23T17:27:01.263Z,-5.40
2019-01-23T17:32:07.643Z,-5.40
2019-01-23T17:37:13.653Z,-5.40
2019-01-23T17:42:19.659Z,-5.60
2019-01-23T17:47:25.939Z,-5.70
2019-01-23T17:52:31.988Z,-5.70
2019-01-23T17:57:38.056Z,-5.70
2019-01-23T18:02:44.267Z,-5.50
2019-01-23T18:07:50.328Z,-5.30
2019-01-23T18:12:56.432Z,-5.30
2019-01-23T18:18:02.771Z,-5.30
2019-01-23T18:23:08.895Z,-5.20
2019-01-23T18:28:15.929Z,-5.10
2019-01-23T18:33:30.328Z,-5.10
2019-01-23T18:38:48.090Z,-5.00
2019-01-23T18:44:21.980Z,-5.00
2019-01-23T18:49:39.790Z,-5.00
2019-01-23T18:54:46.358Z,-4.90
2019-01-23T18:59:58.952Z,-4.90
2019-01-23T19:05:00.262Z,-4.80
2019-01-23T19:10:07.876Z,-4.90
2019-01-23T19:15:15.359Z,-4.90
2019-01-23T19:20:21.953Z,-4.90
2019-01-23T19:25:28.017Z,-4.80
2019-01-23T19:30:34.074Z,-4.70
2019-01-23T19:35:40.042Z,-4.70
2019-01-23T19:40:45.943Z,-4.80
2019-01-23T19:45:51.908Z,-4.80
2019-01-23T19:50:57.988Z,-4.70
2019-01-23T19:56:03.946Z,-4.90
2019-01-23T20:01:10.057Z,-5.00
2019-01-23T20:06:16.294Z,-5.00
2019-01-23T20:11:22.961Z,-5.00
2019-01-23T20:16:29.992Z,-5.10
2019-01-23T20:21:36.053Z,-5.20
2019-01-23T20:26:42.171Z,-5.30
2019-01-23T20:31:48.311Z,-5.40
2019-01-23T20:36:54.378Z,-5.60
2019-01-23T20:42:00.444Z,-5.70
2019-01-23T20:47:06.544Z,-5.80
2019-01-23T20:52:12.503Z,-5.90
2019-01-23T20:57:18.692Z,-6.00
2019-01-23T21:02:24.766Z,-6.10
2019-01-23T21:07:31.032Z,-6.30
2019-01-23T21:12:37.190Z,-6.10
2019-01-23T21:17:43.324Z,-6.30
2019-01-23T21:22:49.552Z,-6.60
2019-01-23T21:27:55.834Z,-6.70
2019-01-23T21:33:02.039Z,-6.60
2019-01-23T21:38:08.118Z,-6.70
2019-01-23T21:43:14.328Z,-6.80
2019-01-23T21:48:20.519Z,-7.00
2019-01-23T21:53:26.761Z,-7.10
2019-01-23T21:58:32.826Z,-7.20
2019-01-23T22:03:38.970Z,-7.10
2019-01-23T22:08:45.148Z,-7.10
2019-01-23T22:13:51.248Z,-7.20
2019-01-23T22:18:58.204Z,-7.30
2019-01-23T22:24:04.178Z,-7.50
2019-01-23T22:29:10.287Z,-7.50
2019-01-23T22:34:16.251Z,-7.20
2019-01-23T22:39:22.415Z,-7.40
2019-01-23T22:44:28.499Z,-7.50
2019-01-23T22:49:34.572Z,-7.60
2019-01-23T22:54:40.546Z,-7.80
2019-01-23T22:59:46.604Z,-7.70
2019-01-23T23:04:52.775Z,-7.60
2019-01-23T23:09:58.853Z,-7.40
2019-01-23T23:15:05.266Z,-7.30
2019-01-23T23:20:11.406Z,-7.10
2019-01-23T23:25:17.591Z,-7.00
2019-01-23T23:30:26.076Z,-7.00
2019-01-23T23:35:32.103Z,-6.90
2019-01-23T23:40:38.094Z,-6.90
2019-01-23T23:45:44.067Z,-6.80
2019-01-23T23:50:50.200Z,-6.60
2019-01-23T23:55:56.283Z,-6.70
